Saint Dennis, United Kingdom
Current Conditions -  °F | °C
As of 7:20 AM on Saturday 20 Dec 2014 (Local Time) from EGHQ Reporting Station
Few Clouds Few Clouds  
Wind Chill: 39°   Ceiling: Unl
Heat Index: 46°   Visibility: 6mi
Dew Point: 39°   Wind: 22mph
Humidity: 76%   Direction: 300°WNW
Pressure: 30.39"   Gusts: NA
Location:  50.38°N, 4.88°W
Report Text: EGHQ 200720Z 30019KT 9999 FEW021 08/04 Q1029
Loading
Personal Weather Stations






























Interactive Weather Map New forecast layout! Learn more

10-Day Weather Forecast

Advertisements
Track Severe Weather on mobile